createdAt,value
2023-03-26T00:01:30.029Z,97029.72
2023-03-26T00:03:57.713Z,97028.97
2023-03-26T00:06:28.743Z,97026.59
2023-03-26T00:08:57.728Z,97041.44
2023-03-26T00:11:28.045Z,97040.63
2023-03-26T00:13:57.554Z,97042.28
2023-03-26T00:16:28.381Z,97047.56
2023-03-26T00:18:56.115Z,97050.03
2023-03-26T00:21:28.772Z,97043.78
2023-03-26T00:23:59.669Z,97041.06
2023-03-26T00:26:31.042Z,97037.50
2023-03-26T00:29:00.027Z,97036.72
2023-03-26T00:31:27.420Z,97053.84
2023-03-26T00:33:55.489Z,97047.94
2023-03-26T00:36:26.442Z,97053.97
2023-03-26T00:38:54.325Z,97052.53
2023-03-26T00:41:25.737Z,97051.72
2023-03-26T00:43:57.072Z,97049.00
2023-03-26T00:46:26.564Z,97038.63
2023-03-26T00:48:53.906Z,97043.81
2023-03-26T00:51:21.688Z,97032.50
2023-03-26T00:53:50.343Z,97038.38
2023-03-26T00:56:18.482Z,97042.75
2023-03-26T00:58:47.461Z,97040.97
2023-03-26T01:01:20.372Z,97039.59
2023-03-26T01:04:04.823Z,97037.13
2023-03-26T01:06:38.870Z,97029.47
2023-03-26T01:09:18.548Z,97031.13
2023-03-26T01:11:45.801Z,97033.00
2023-03-26T01:14:23.414Z,97033.00
2023-03-26T01:16:53.598Z,97029.59
2023-03-26T01:19:33.860Z,97017.47
2023-03-26T01:22:00.690Z,97016.78
2023-03-26T01:24:28.104Z,97020.31
2023-03-26T01:27:21.001Z,97012.59
2023-03-26T01:29:59.576Z,97018.84
2023-03-26T01:32:55.554Z,97016.94
2023-03-26T01:35:44.109Z,97025.66
2023-03-26T01:38:48.117Z,97024.41
2023-03-26T01:41:43.807Z,97017.00
2023-03-26T01:44:37.549Z,97006.63
2023-03-26T01:47:06.299Z,97020.63
2023-03-26T01:49:33.501Z,97023.31
2023-03-26T01:52:00.573Z,97026.63
2023-03-26T01:54:31.550Z,97014.50
2023-03-26T01:57:34.799Z,97001.56
2023-03-26T02:00:33.716Z,97011.09
2023-03-26T02:03:30.351Z,97009.31
2023-03-26T02:06:06.169Z,97004.06
2023-03-26T02:08:46.471Z,96993.69
2023-03-26T02:11:16.611Z,96988.41
2023-03-26T02:13:46.322Z,96990.16
2023-03-26T02:16:16.786Z,96992.75
2023-03-26T02:18:45.876Z,96986.63
2023-03-26T02:21:20.030Z,96990.84
2023-03-26T02:24:02.490Z,96982.53
2023-03-26T02:26:32.356Z,96980.03
2023-03-26T02:29:01.613Z,96982.84
2023-03-26T02:31:30.161Z,96970.41
2023-03-26T02:33:57.158Z,96975.81
2023-03-26T02:36:27.109Z,96971.56
2023-03-26T02:38:57.712Z,96965.56
2023-03-26T02:41:24.628Z,96963.81
2023-03-26T02:43:51.513Z,96973.34
2023-03-26T02:46:18.343Z,96963.81
2023-03-26T02:48:47.491Z,96962.16
2023-03-26T02:51:14.267Z,96960.41
2023-03-26T02:53:41.179Z,96964.75
2023-03-26T02:56:08.949Z,96956.28
2023-03-26T02:58:35.658Z,96949.59
2023-03-26T03:01:03.136Z,96952.44
2023-03-26T03:03:30.338Z,96948.41
2023-03-26T03:05:57.852Z,96938.06
2023-03-26T03:08:28.488Z,96931.84
2023-03-26T03:11:11.100Z,96934.69
2023-03-26T03:13:37.874Z,96930.53
2023-03-26T03:16:05.515Z,96930.66
2023-03-26T03:18:32.242Z,96927.63
2023-03-26T03:20:58.968Z,96924.47
2023-03-26T03:23:25.812Z,96925.50
2023-03-26T03:25:53.143Z,96916.91
2023-03-26T03:28:20.317Z,96914.44
2023-03-26T03:30:48.803Z,96915.66
2023-03-26T03:33:15.694Z,96915.28
2023-03-26T03:35:42.560Z,96922.34
2023-03-26T03:38:11.073Z,96924.34
2023-03-26T03:40:37.818Z,96915.38
2023-03-26T03:43:04.649Z,96911.41
2023-03-26T03:45:31.430Z,96914.22
2023-03-26T03:47:58.348Z,96918.69
2023-03-26T03:50:25.286Z,96912.91
2023-03-26T03:52:52.034Z,96918.44
2023-03-26T03:55:18.793Z,96908.34
2023-03-26T03:57:46.042Z,96914.44
2023-03-26T04:00:14.696Z,96915.41
2023-03-26T04:02:42.869Z,96912.00
2023-03-26T04:05:11.476Z,96921.50
2023-03-26T04:07:39.199Z,96900.91
2023-03-26T04:10:09.121Z,96912.31
2023-03-26T04:12:35.873Z,96909.97
2023-03-26T04:15:04.297Z,96918.19
2023-03-26T04:17:31.124Z,96910.19
2023-03-26T04:19:58.079Z,96908.03
2023-03-26T04:22:34.247Z,96910.16
2023-03-26T04:25:02.415Z,96912.16
2023-03-26T04:27:37.838Z,96907.22
2023-03-26T04:30:07.302Z,96915.88
2023-03-26T04:32:34.841Z,96894.63
2023-03-26T04:35:06.763Z,96890.41
2023-03-26T04:37:40.037Z,96888.06
2023-03-26T04:40:19.325Z,96878.97
2023-03-26T04:42:46.572Z,96868.88
2023-03-26T04:45:22.598Z,96869.94
2023-03-26T04:47:50.802Z,96860.91
2023-03-26T04:50:18.036Z,96865.44
2023-03-26T04:52:45.434Z,96862.97
2023-03-26T04:55:35.312Z,96866.50
2023-03-26T04:58:05.334Z,96863.22
2023-03-26T05:00:32.519Z,96849.72
2023-03-26T05:02:59.449Z,96849.84
2023-03-26T05:05:29.036Z,96837.03
2023-03-26T05:07:55.891Z,96845.50
2023-03-26T05:10:23.635Z,96836.59
2023-03-26T05:12:50.418Z,96850.06
2023-03-26T05:15:17.294Z,96835.09
2023-03-26T05:17:44.370Z,96829.09
2023-03-26T05:20:27.092Z,96827.47
2023-03-26T05:22:53.851Z,96829.94
2023-03-26T05:25:20.627Z,96827.66
2023-03-26T05:27:47.899Z,96825.91
2023-03-26T05:30:19.941Z,96829.94
2023-03-26T05:32:52.026Z,96825.34
2023-03-26T05:35:19.865Z,96818.06
2023-03-26T05:37:49.619Z,96804.00
2023-03-26T05:40:17.085Z,96799.56
2023-03-26T05:42:45.332Z,96791.81
2023-03-26T05:45:14.530Z,96790.75
2023-03-26T05:47:41.426Z,96789.69
2023-03-26T05:50:09.916Z,96786.84
2023-03-26T05:52:37.104Z,96783.00
2023-03-26T05:55:04.357Z,96773.00
2023-03-26T05:57:31.728Z,96769.28
2023-03-26T05:59:58.522Z,96777.25
2023-03-26T06:02:25.361Z,96773.25
2023-03-26T06:04:52.371Z,96776.28
2023-03-26T06:07:19.752Z,96772.44
2023-03-26T06:09:46.749Z,96765.00
2023-03-26T06:12:14.830Z,96765.81
2023-03-26T06:14:45.713Z,96757.91
2023-03-26T06:17:12.653Z,96763.75
2023-03-26T06:19:39.488Z,96745.88
2023-03-26T06:22:06.419Z,96734.19
2023-03-26T06:24:34.286Z,96748.31
2023-03-26T06:27:01.037Z,96742.41
2023-03-26T06:29:27.894Z,96741.84
2023-03-26T06:31:54.867Z,96736.41
2023-03-26T06:34:21.685Z,96734.53
2023-03-26T06:36:48.824Z,96744.94
2023-03-26T06:39:15.983Z,96733.56
2023-03-26T06:41:42.768Z,96747.66
2023-03-26T06:44:11.056Z,96746.53
2023-03-26T06:46:37.981Z,96740.41
2023-03-26T06:49:04.740Z,96745.19
2023-03-26T06:51:31.517Z,96730.97
2023-03-26T06:53:58.352Z,96733.03
2023-03-26T06:56:25.162Z,96727.34
2023-03-26T06:58:51.922Z,96716.66
2023-03-26T07:01:18.697Z,96714.88
2023-03-26T07:03:45.475Z,96709.19
2023-03-26T07:06:12.254Z,96712.47
2023-03-26T07:08:39.182Z,96712.91
2023-03-26T07:11:06.367Z,96701.63
2023-03-26T07:13:33.068Z,96706.16
2023-03-26T07:15:59.895Z,96702.00
2023-03-26T07:18:26.677Z,96720.13
2023-03-26T07:20:54.035Z,96719.19
2023-03-26T07:23:21.367Z,96722.91
2023-03-26T07:25:49.569Z,96712.97
2023-03-26T07:28:34.229Z,96700.09
2023-03-26T07:31:22.779Z,96703.22
2023-03-26T07:34:27.617Z,96701.38
2023-03-26T07:37:03.624Z,96689.94
2023-03-26T07:39:59.151Z,96695.78
2023-03-26T07:43:08.748Z,96686.16
2023-03-26T07:45:43.820Z,96680.16
2023-03-26T07:48:19.075Z,96678.25
2023-03-26T07:50:46.941Z,96670.88
2023-03-26T07:53:14.626Z,96663.94
2023-03-26T07:56:07.639Z,96659.56
2023-03-26T07:58:46.184Z,96655.63
2023-03-26T08:01:40.663Z,96651.13
2023-03-26T08:04:37.020Z,96650.19
2023-03-26T08:07:21.297Z,96643.91
2023-03-26T08:10:17.273Z,96640.91
2023-03-26T08:12:59.690Z,96626.88
2023-03-26T08:15:47.539Z,96629.34
2023-03-26T08:18:27.335Z,96639.03
2023-03-26T08:21:39.499Z,96641.88
2023-03-26T08:24:19.214Z,96642.00
2023-03-26T08:27:37.778Z,96637.63
2023-03-26T08:30:20.120Z,96636.38
2023-03-26T08:32:58.203Z,96636.38
2023-03-26T08:35:28.236Z,96631.88
2023-03-26T08:37:55.194Z,96622.19
2023-03-26T08:41:03.649Z,96617.59
2023-03-26T08:44:25.784Z,96608.19
2023-03-26T08:47:41.686Z,96604.31
2023-03-26T08:50:36.224Z,96600.09
2023-03-26T08:53:34.265Z,96598.72
2023-03-26T08:56:27.311Z,96591.22
2023-03-26T08:59:36.813Z,96587.94
2023-03-26T09:02:50.930Z,96566.38
2023-03-26T09:05:59.072Z,96577.06
2023-03-26T09:08:54.250Z,96569.28
2023-03-26T09:12:13.448Z,96565.31
2023-03-26T09:15:26.187Z,96566.38
2023-03-26T09:18:26.159Z,96563.94
2023-03-26T09:21:22.118Z,96567.88
2023-03-26T09:24:31.602Z,96565.56
2023-03-26T09:27:51.703Z,96554.38
2023-03-26T09:30:47.003Z,96553.03
2023-03-26T09:33:52.220Z,96555.19
2023-03-26T09:36:29.697Z,96558.91
2023-03-26T09:39:37.367Z,96557.97
2023-03-26T09:42:44.748Z,96555.22
2023-03-26T09:45:54.390Z,96555.22
2023-03-26T09:48:53.953Z,96554.69
2023-03-26T09:52:10.334Z,96558.47
2023-03-26T09:54:58.796Z,96551.25
2023-03-26T09:58:23.365Z,96553.53
2023-03-26T10:01:32.053Z,96561.44
2023-03-26T10:04:37.818Z,96562.41
2023-03-26T10:07:41.790Z,96562.41
2023-03-26T10:10:42.985Z,96552.31
2023-03-26T10:13:52.835Z,96534.19
2023-03-26T10:16:37.749Z,96533.66
2023-03-26T10:19:45.556Z,96536.38
2023-03-26T10:23:08.164Z,96527.94
2023-03-26T10:26:38.748Z,96528.50
2023-03-26T10:29:53.754Z,96533.66
2023-03-26T10:32:46.688Z,96534.34
2023-03-26T10:35:45.271Z,96530.66
2023-03-26T10:38:26.827Z,96531.06
2023-03-26T10:41:36.420Z,96533.09
2023-03-26T10:44:27.238Z,96514.13
2023-03-26T10:47:31.852Z,96513.19
2023-03-26T10:50:35.848Z,96504.34
2023-03-26T10:53:36.158Z,96508.44
2023-03-26T10:56:32.881Z,96513.22
2023-03-26T10:59:08.060Z,96505.84
2023-03-26T11:02:05.914Z,96506.66
2023-03-26T11:05:13.949Z,96505.69
2023-03-26T11:08:14.707Z,96493.84
2023-03-26T11:17:39.495Z,96497.81
2023-03-26T11:26:29.163Z,96480.84
2023-03-26T11:29:46.030Z,96464.81
2023-03-26T11:32:22.194Z,96459.47
2023-03-26T11:35:17.183Z,96464.81
2023-03-26T11:38:13.239Z,96449.94
2023-03-26T11:40:50.483Z,96449.38
2023-03-26T11:43:25.902Z,96437.25
2023-03-26T11:45:53.730Z,96433.97
2023-03-26T11:48:32.199Z,96438.72
2023-03-26T11:51:10.171Z,96434.91
2023-03-26T11:53:46.414Z,96437.63
2023-03-26T11:56:28.522Z,96427.91
2023-03-26T11:59:05.086Z,96421.38
2023-03-26T12:01:50.872Z,96436.94
2023-03-26T12:04:29.388Z,96423.84
2023-03-26T12:07:21.010Z,96422.34
2023-03-26T12:09:57.851Z,96430.53
2023-03-26T12:12:47.908Z,96431.84
2023-03-26T12:15:16.716Z,96436.28
2023-03-26T12:17:43.523Z,96434.34
2023-03-26T12:20:25.737Z,96427.75
2023-03-26T12:22:59.170Z,96423.28
2023-03-26T12:25:32.581Z,96410.97
2023-03-26T12:28:14.510Z,96397.81
2023-03-26T12:31:00.702Z,96395.97
2023-03-26T12:33:34.576Z,96378.44
2023-03-26T12:36:27.809Z,96377.66
2023-03-26T12:39:42.669Z,96376.84
2023-03-26T12:44:46.038Z,96375.13
2023-03-26T12:44:49.092Z,96375.81
2023-03-26T12:47:58.584Z,96363.38
2023-03-26T12:50:17.612Z,96367.00
2023-03-26T12:53:45.142Z,96360.44
2023-03-26T12:56:49.948Z,96357.59
2023-03-26T13:00:21.144Z,96333.44
2023-03-26T13:03:21.140Z,96339.00
2023-03-26T13:06:16.601Z,96328.59
2023-03-26T13:09:18.094Z,96330.53
2023-03-26T13:12:27.409Z,96314.44
2023-03-26T13:15:18.742Z,96317.13
2023-03-26T13:18:25.098Z,96325.13
2023-03-26T13:21:06.331Z,96319.72
2023-03-26T13:24:01.231Z,96317.41
2023-03-26T13:26:49.830Z,96306.03
2023-03-26T13:29:28.173Z,96307.53
2023-03-26T13:32:42.700Z,96297.38
2023-03-26T13:35:48.974Z,96303.06
2023-03-26T13:38:59.083Z,96290.47
2023-03-26T13:41:51.259Z,96287.19
2023-03-26T13:44:47.298Z,96284.91
2023-03-26T13:47:18.492Z,96272.88
2023-03-26T13:50:31.323Z,96266.31
2023-03-26T13:53:13.996Z,96269.34
2023-03-26T13:55:55.287Z,96259.31
2023-03-26T13:58:36.722Z,96248.25
2023-03-26T14:01:22.998Z,96254.16
2023-03-26T14:04:05.628Z,96243.91
2023-03-26T14:06:53.898Z,96234.34
2023-03-26T14:09:29.106Z,96227.28
2023-03-26T14:11:56.626Z,96226.00
2023-03-26T14:14:58.827Z,96222.22
2023-03-26T14:17:48.386Z,96218.16
2023-03-26T14:20:32.944Z,96226.59
2023-03-26T14:23:17.038Z,96236.91
2023-03-26T14:26:13.759Z,96225.22
2023-03-26T14:29:14.289Z,96225.56
2023-03-26T14:32:16.336Z,96264.16
2023-03-26T14:35:33.447Z,96257.78
2023-03-26T14:38:46.317Z,96230.81
2023-03-26T14:41:58.953Z,96220.34
2023-03-26T14:45:10.867Z,96216.22
2023-03-26T14:48:31.447Z,96210.81
2023-03-26T14:51:36.171Z,96210.25
2023-03-26T14:54:11.992Z,96205.53
2023-03-26T14:57:00.839Z,96194.56
2023-03-26T15:00:02.092Z,96194.31
2023-03-26T15:03:11.407Z,96184.63
2023-03-26T15:06:21.040Z,96177.06
2023-03-26T15:08:58.329Z,96171.81
2023-03-26T15:12:12.110Z,96173.75
2023-03-26T15:15:36.468Z,96159.03
2023-03-26T15:18:43.712Z,96164.88
2023-03-26T15:21:54.042Z,96160.94
2023-03-26T15:24:26.750Z,96161.63
2023-03-26T15:27:39.627Z,96161.94
2023-03-26T15:31:06.445Z,96151.44
2023-03-26T15:34:19.976Z,96151.28
2023-03-26T15:37:15.109Z,96153.56
2023-03-26T15:40:21.310Z,96143.94
2023-03-26T15:43:14.366Z,96158.06
2023-03-26T15:45:51.149Z,96154.56
2023-03-26T15:48:50.814Z,96150.13
2023-03-26T15:52:07.777Z,96150.97
2023-03-26T15:54:47.767Z,96158.59
2023-03-26T15:57:28.522Z,96153.97
2023-03-26T16:00:22.660Z,96141.81
2023-03-26T16:03:25.372Z,96147.22
2023-03-26T16:06:19.199Z,96152.47
2023-03-26T16:08:57.510Z,96144.13
2023-03-26T16:12:27.381Z,96143.72
2023-03-26T16:15:07.137Z,96148.94
2023-03-26T16:18:10.199Z,96132.63
2023-03-26T16:20:54.711Z,96144.16
2023-03-26T16:23:55.049Z,96148.97
2023-03-26T16:26:43.033Z,96146.44
2023-03-26T16:29:27.950Z,96140.75
2023-03-26T16:32:17.437Z,96143.31
2023-03-26T16:35:02.046Z,96145.41
2023-03-26T16:37:53.699Z,96141.69
2023-03-26T16:40:32.278Z,96143.28
2023-03-26T16:43:16.393Z,96155.44
2023-03-26T16:46:09.326Z,96156.47
2023-03-26T16:48:50.371Z,96149.88
2023-03-26T16:51:37.004Z,96156.38
2023-03-26T16:54:26.904Z,96154.47
2023-03-26T16:57:22.512Z,96145.38
2023-03-26T17:00:16.080Z,96148.66
2023-03-26T17:03:17.716Z,96147.84
2023-03-26T17:05:56.966Z,96147.06
2023-03-26T17:08:53.437Z,96152.28
2023-03-26T17:11:36.616Z,96150.63
2023-03-26T17:14:15.973Z,96158.97
2023-03-26T17:17:03.359Z,96167.41
2023-03-26T17:19:56.176Z,96163.19
2023-03-26T17:22:47.113Z,96166.59
2023-03-26T17:26:04.494Z,96172.59
2023-03-26T17:29:01.831Z,96183.16
2023-03-26T17:31:48.775Z,96184.13
2023-03-26T17:34:58.139Z,96181.44
2023-03-26T17:37:30.766Z,96177.06
2023-03-26T17:41:01.827Z,96180.44
2023-03-26T17:43:51.221Z,96181.41
2023-03-26T17:46:46.010Z,96191.28
2023-03-26T17:49:31.043Z,96185.88
2023-03-26T17:52:19.408Z,96186.50
2023-03-26T17:54:51.148Z,96184.50
2023-03-26T17:57:28.124Z,96192.94
2023-03-26T17:59:59.460Z,96189.31
2023-03-26T18:02:39.474Z,96195.16
2023-03-26T18:05:11.157Z,96200.81
2023-03-26T18:07:56.773Z,96210.50
2023-03-26T18:10:48.136Z,96211.91
2023-03-26T18:13:44.478Z,96221.50
2023-03-26T18:16:21.059Z,96221.88
2023-03-26T18:18:59.543Z,96226.59
2023-03-26T18:21:39.176Z,96223.09
2023-03-26T18:24:12.653Z,96221.59
2023-03-26T18:26:48.440Z,96234.75
2023-03-26T18:29:26.481Z,96233.13
2023-03-26T18:32:14.687Z,96232.47
2023-03-26T18:34:52.488Z,96234.88
2023-03-26T18:37:31.711Z,96240.59
2023-03-26T18:40:19.016Z,96247.97
2023-03-26T18:42:56.275Z,96246.44
2023-03-26T18:45:39.642Z,96242.44
2023-03-26T18:48:17.848Z,96242.06
2023-03-26T18:50:47.047Z,96242.47
2023-03-26T18:53:23.447Z,96244.56
2023-03-26T18:55:51.701Z,96243.97
2023-03-26T18:58:36.704Z,96239.19
2023-03-26T19:01:20.183Z,96233.34
2023-03-26T19:03:53.540Z,96231.50
2023-03-26T19:06:20.970Z,96228.00
2023-03-26T19:08:48.570Z,96227.50
2023-03-26T19:11:17.715Z,96230.50
2023-03-26T19:13:57.990Z,96227.09
2023-03-26T19:16:33.472Z,96228.06
2023-03-26T19:19:05.394Z,96240.69
2023-03-26T19:21:35.675Z,96253.41
2023-03-26T19:24:04.794Z,96253.59
2023-03-26T19:26:32.443Z,96258.69
2023-03-26T19:29:00.647Z,96254.88
2023-03-26T19:31:38.642Z,96261.31
2023-03-26T19:34:34.898Z,96258.63
2023-03-26T19:37:18.695Z,96262.47
2023-03-26T19:40:17.487Z,96261.94
2023-03-26T19:42:45.081Z,96254.19
2023-03-26T19:45:20.174Z,96248.63
2023-03-26T19:47:57.393Z,96249.88
2023-03-26T19:50:42.063Z,96250.81
2023-03-26T19:53:16.269Z,96256.16
2023-03-26T19:56:14.967Z,96259.56
2023-03-26T19:58:42.917Z,96267.47
2023-03-26T20:01:21.657Z,96266.13
2023-03-26T20:03:54.214Z,96267.38
2023-03-26T20:06:30.762Z,96264.50
2023-03-26T20:09:01.215Z,96266.97
2023-03-26T20:11:39.008Z,96275.97
2023-03-26T20:14:16.019Z,96277.91
2023-03-26T20:16:45.358Z,96264.28
2023-03-26T20:19:14.474Z,96273.69
2023-03-26T20:21:41.770Z,96264.69
2023-03-26T20:24:19.239Z,96276.66
2023-03-26T20:26:47.281Z,96280.06
2023-03-26T20:29:15.139Z,96271.91
2023-03-26T20:31:43.217Z,96279.97
2023-03-26T20:34:23.482Z,96278.44
2023-03-26T20:36:56.918Z,96267.44
2023-03-26T20:39:28.229Z,96274.50
2023-03-26T20:41:56.218Z,96277.53
2023-03-26T20:44:23.435Z,96287.22
2023-03-26T20:46:51.286Z,96276.28
2023-03-26T20:49:18.673Z,96276.03
2023-03-26T20:51:46.386Z,96288.03
2023-03-26T20:54:24.303Z,96281.09
2023-03-26T20:56:52.288Z,96275.91
2023-03-26T20:59:22.903Z,96274.94
2023-03-26T21:01:51.117Z,96280.94
2023-03-26T21:04:19.145Z,96284.47
2023-03-26T21:06:46.649Z,96280.41
2023-03-26T21:09:17.719Z,96285.72
2023-03-26T21:12:16.746Z,96284.78
2023-03-26T21:14:44.166Z,96286.94
2023-03-26T21:17:20.021Z,96292.13
2023-03-26T21:19:47.756Z,96289.66
2023-03-26T21:22:34.948Z,96294.84
2023-03-26T21:25:18.490Z,96296.75
2023-03-26T21:27:53.951Z,96298.38
2023-03-26T21:30:22.077Z,96298.78
2023-03-26T21:32:49.563Z,96301.50
2023-03-26T21:35:17.054Z,96299.75
2023-03-26T21:37:48.448Z,96300.97
2023-03-26T21:40:18.103Z,96302.22
2023-03-26T21:42:52.100Z,96301.41
2023-03-26T21:45:21.222Z,96306.44
2023-03-26T21:47:49.834Z,96295.13
2023-03-26T21:50:22.779Z,96293.50
2023-03-26T21:52:51.709Z,96288.31
2023-03-26T21:55:24.197Z,96302.31
2023-03-26T21:58:46.541Z,96295.63
2023-03-26T22:01:16.601Z,96290.72
2023-03-26T22:04:21.245Z,96290.06
2023-03-26T22:06:57.430Z,96290.88
2023-03-26T22:09:33.957Z,96284.72
2023-03-26T22:12:03.858Z,96294.56
2023-03-26T22:14:30.756Z,96289.94
2023-03-26T22:16:57.567Z,96292.81
2023-03-26T22:19:24.326Z,96291.13
2023-03-26T22:21:51.057Z,96287.63
2023-03-26T22:24:17.846Z,96279.88
2023-03-26T22:26:44.558Z,96285.41
2023-03-26T22:29:11.955Z,96288.28
2023-03-26T22:31:40.120Z,96290.06
2023-03-26T22:34:07.718Z,96289.22
2023-03-26T22:36:35.082Z,96289.38
2023-03-26T22:39:02.357Z,96294.56
2023-03-26T22:41:31.901Z,96300.53
2023-03-26T22:44:09.438Z,96297.97
2023-03-26T22:46:47.250Z,96308.16
2023-03-26T22:49:14.041Z,96303.00
2023-03-26T22:51:40.881Z,96296.03
2023-03-26T22:54:07.680Z,96304.22
2023-03-26T22:56:34.591Z,96297.66
2023-03-26T22:59:01.331Z,96299.31
2023-03-26T23:01:28.303Z,96300.81
2023-03-26T23:03:55.081Z,96316.88
2023-03-26T23:06:21.837Z,96307.75
2023-03-26T23:08:48.768Z,96310.34
2023-03-26T23:11:19.101Z,96306.13
2023-03-26T23:13:47.488Z,96306.78
2023-03-26T23:16:16.017Z,96307.34
2023-03-26T23:18:43.880Z,96305.19
2023-03-26T23:21:18.085Z,96308.03
2023-03-26T23:23:46.151Z,96311.16
2023-03-26T23:26:14.408Z,96312.41
2023-03-26T23:28:43.710Z,96309.09
2023-03-26T23:31:12.500Z,96313.59
2023-03-26T23:33:45.832Z,96317.97
2023-03-26T23:36:17.354Z,96319.06
2023-03-26T23:38:46.958Z,96316.59
2023-03-26T23:41:16.721Z,96324.22
2023-03-26T23:43:53.617Z,96322.44
2023-03-26T23:46:24.300Z,96315.66
2023-03-26T23:48:52.187Z,96314.69
2023-03-26T23:51:20.030Z,96313.06
2023-03-26T23:53:48.959Z,96324.50
2023-03-26T23:56:16.201Z,96332.63
2023-03-26T23:58:43.279Z,96329.25
